Time;durP1;ratioP1;P1;durP2;ratioP2;P2;SDS_P1;SDS_P2;PMS_P1;PMS_P2;Temp;Humidity;BMP_temperature;BMP_pressure;BME280_temperature;BME280_humidity;BME280_pressure;Samples;Min_cycle;Max_cycle;Signal;HPM_P1;HPM_P2
2021/03/27 00:00:41;;;;;;;20.73;18.20;;;;;;;19.76;49.71;100701.53;2060917;28;20034;-67
2021/03/27 00:01:42;;;;;;;19.92;17.70;;;;;;;19.74;49.79;100703.53;2059437;28;20038;-67
2021/03/27 00:02:49;;;;;;;20.03;16.37;;;;;;;19.73;49.81;100700.97;2061181;28;20089;-68
2021/03/27 00:04:04;;;;;;;20.25;18.05;;;;;;;19.72;49.87;100697.38;2057892;28;20064;-68
2021/03/27 00:05:15;;;;;;;31.58;17.48;;;;;;;19.72;49.77;100712.88;2061326;28;20888;-68
2021/03/27 00:06:21;;;;;;;19.30;16.63;;;;;;;19.69;49.84;100694.88;2054625;28;20018;-68
2021/03/27 00:07:32;;;;;;;24.17;17.20;;;;;;;19.69;49.89;100701.22;2058344;28;20512;-68
2021/03/27 00:08:51;;;;;;;18.58;16.02;;;;;;;19.68;49.90;100702.22;2061476;28;20026;-68
2021/03/27 00:10:08;;;;;;;18.88;15.73;;;;;;;19.68;49.86;100704.97;2054257;28;20283;-68
2021/03/27 00:11:41;;;;;;;19.13;16.08;;;;;;;19.67;49.85;100705.06;2061050;28;20385;-68
2021/03/27 00:12:50;;;;;;;18.45;15.73;;;;;;;19.67;49.87;100708.72;2036202;29;20458;-68
2021/03/27 00:13:59;;;;;;;18.58;15.57;;;;;;;19.68;49.88;100712.31;2062130;28;20393;-68
2021/03/27 00:15:19;;;;;;;16.23;14.52;;;;;;;19.65;49.73;100710.69;2061376;28;20184;-68
2021/03/27 00:16:26;;;;;;;18.17;16.23;;;;;;;19.65;49.77;100710.69;2060430;28;20532;-68
2021/03/27 00:17:44;;;;;;;17.92;15.82;;;;;;;19.65;49.79;100709.81;2059148;28;20034;-68
2021/03/27 00:18:54;;;;;;;17.63;15.38;;;;;;;19.64;49.79;100719.88;2061288;28;20100;-68
2021/03/27 00:20:01;;;;;;;19.73;16.25;;;;;;;19.63;49.78;100718.16;2060755;28;20033;-68
2021/03/27 00:21:06;;;;;;;17.52;15.73;;;;;;;19.64;49.71;100714.41;2058533;28;20033;-68
2021/03/27 00:22:43;;;;;;;17.52;15.55;;;;;;;19.62;49.75;100721.91;2058150;28;20022;-68
2021/03/27 00:23:51;;;;;;;19.13;16.23;;;;;;;19.63;49.79;100715.44;2044111;28;20047;-68
2021/03/27 00:25:05;;;;;;;17.88;16.08;;;;;;;19.64;49.69;100725.34;2059653;28;20049;-68
2021/03/27 00:26:12;;;;;;;19.90;17.17;;;;;;;19.65;49.73;100720.78;2060551;28;20125;-68
2021/03/27 00:27:21;;;;;;;17.40;15.40;;;;;;;19.64;49.67;100719.88;2062101;28;20026;-68
2021/03/27 00:28:28;;;;;;;18.20;15.55;;;;;;;19.63;49.63;100731.84;2060440;28;20572;-68
2021/03/27 00:29:43;;;;;;;16.02;14.32;;;;;;;19.60;49.75;100717.56;2061865;28;20039;-68
2021/03/27 00:30:57;;;;;;;19.77;15.43;;;;;;;19.61;49.76;100724.78;2055041;28;20061;-68
2021/03/27 00:32:07;;;;;;;18.33;15.02;;;;;;;19.60;49.86;100718.44;2061430;28;20018;-68
2021/03/27 00:33:09;;;;;;;18.17;16.00;;;;;;;19.61;49.83;100724.78;2060670;28;20045;-68
2021/03/27 00:34:14;;;;;;;;;;;;;;;19.60;49.70;100733.97;2055050;28;20034;-68
2021/03/27 00:35:24;;;;;;;18.42;15.20;;;;;;;19.59;49.85;100727.63;2053643;28;20372;-68
2021/03/27 00:36:30;;;;;;;17.60;15.80;;;;;;;19.59;49.79;100724.03;2059092;28;20034;-68
2021/03/27 00:37:32;;;;;;;18.08;15.77;;;;;;;19.59;49.78;100730.38;2061126;28;20113;-68
2021/03/27 00:38:40;;;;;;;20.90;15.93;;;;;;;19.58;49.75;100725.91;2060638;28;20030;-68
2021/03/27 00:39:46;;;;;;;18.35;15.73;;;;;;;19.58;49.83;100728.66;2060864;28;20504;-68
2021/03/27 00:40:51;;;;;;;17.17;14.98;;;;;;;19.58;49.80;100725.06;2061103;28;20469;-68
2021/03/27 00:42:03;;;;;;;17.83;15.23;;;;;;;19.59;49.75;100727.63;2057856;28;20030;-68
2021/03/27 00:43:10;;;;;;;15.15;13.13;;;;;;;19.58;49.81;100727.78;2060402;28;20053;-68
2021/03/27 00:44:13;;;;;;;16.80;14.95;;;;;;;19.58;49.71;100723.19;2053914;28;20027;-68
2021/03/27 00:45:17;;;;;;;16.95;14.68;;;;;;;19.58;49.80;100725.91;2057608;28;20050;-68
2021/03/27 00:46:19;;;;;;;16.60;14.85;;;;;;;19.57;49.83;100726.91;2058952;28;20125;-68
2021/03/27 00:47:26;;;;;;;16.08;14.45;;;;;;;19.58;49.83;100730.53;2061954;28;20033;-67
2021/03/27 00:48:42;;;;;;;15.60;13.85;;;;;;;19.56;49.80;100727.91;2054646;28;20561;-68
2021/03/27 00:49:51;;;;;;;15.77;14.10;;;;;;;19.57;49.79;100721.44;2056622;28;20676;-68
2021/03/27 00:50:57;;;;;;;18.23;14.15;;;;;;;19.56;49.80;100716.97;2062252;28;20069;-68
2021/03/27 00:52:07;;;;;;;17.33;15.52;;;;;;;19.57;49.80;100728.78;2059103;28;20026;-67
2021/03/27 00:53:17;;;;;;;18.48;15.40;;;;;;;19.54;49.91;100718.97;2057664;28;20101;-68
2021/03/27 00:54:35;;;;;;;16.92;15.10;;;;;;;19.55;49.85;100726.19;2058480;28;20026;-68
2021/03/27 00:55:45;;;;;;;16.40;14.57;;;;;;;19.53;49.86;100722.72;2054132;28;20054;-68
2021/03/27 00:56:45;;;;;;;15.32;13.32;;;;;;;19.54;49.89;100724.44;2056892;28;20656;-68
2021/03/27 00:57:54;;;;;;;17.47;15.30;;;;;;;19.54;49.88;100724.44;2055857;28;20180;-68
2021/03/27 00:58:59;;;;;;;17.58;15.43;;;;;;;19.53;49.99;100725.47;2062204;28;20033;-68
2021/03/27 01:00:02;;;;;;;17.83;14.98;;;;;;;19.54;49.82;100724.44;2059237;28;20026;-68
2021/03/27 01:01:07;;;;;;;15.80;14.10;;;;;;;19.53;49.92;100725.47;2061946;28;20560;-68
2021/03/27 01:02:12;;;;;;;17.35;14.43;;;;;;;19.52;49.87;100720.97;2062107;28;20076;-68
2021/03/27 01:03:28;;;;;;;16.13;14.43;;;;;;;19.52;49.96;100715.50;2060455;28;20109;-68
2021/03/27 01:04:32;;;;;;;17.33;14.98;;;;;;;19.52;49.96;100720.13;2062102;28;20763;-68
2021/03/27 01:05:34;;;;;;;15.95;14.25;;;;;;;19.51;49.79;100724.72;2061696;28;20034;-67
2021/03/27 01:06:54;;;;;;;17.45;14.73;;;;;;;19.51;49.88;100724.72;2060448;28;20069;-68
2021/03/27 01:07:57;;;;;;;15.73;13.93;;;;;;;19.52;49.92;100731.91;2061097;28;20596;-68
2021/03/27 01:09:00;;;;;;;16.33;14.55;;;;;;;19.51;50.00;100727.47;2061752;28;20026;-68
2021/03/27 01:10:10;;;;;;;16.30;14.52;;;;;;;19.49;49.92;100726.75;2058273;28;20034;-68
2021/03/27 01:11:20;;;;;;;16.55;13.70;;;;;;;19.49;49.90;100727.59;2058875;28;20674;-68
2021/03/27 01:12:33;;;;;;;17.50;14.82;;;;;;;19.50;49.96;100723.00;2052024;28;20034;-68
2021/03/27 01:13:46;;;;;;;;;;;;;;;19.48;50.04;100722.28;2054200;28;20445;-68
2021/03/27 01:14:52;;;;;;;17.75;14.32;;;;;;;19.48;49.95;100725.88;2059230;28;20589;-67
2021/03/27 01:16:00;;;;;;;17.25;14.00;;;;;;;19.47;50.08;100723.25;2061594;28;20521;-68
2021/03/27 01:17:01;;;;;;;15.43;12.88;;;;;;;19.48;50.00;100733.22;2061524;28;20377;-67
2021/03/27 01:18:13;;;;;;;19.27;14.32;;;;;;;19.46;49.96;100727.03;2060774;28;20026;-67
2021/03/27 01:19:38;;;;;;;15.38;13.77;;;;;;;19.45;50.02;100726.16;2063296;28;20045;-68
2021/03/27 01:20:42;;;;;;;15.73;14.05;;;;;;;19.45;50.14;100726.16;2055792;28;20038;-68
2021/03/27 01:21:46;;;;;;;17.05;14.63;;;;;;;19.44;49.96;100726.28;2060573;28;20054;-68
2021/03/27 01:22:48;;;;;;;15.95;13.35;;;;;;;19.45;49.97;100725.25;2058796;28;20036;-68
2021/03/27 01:23:54;;;;;;;;;;;;;;;19.44;50.16;100731.75;2063959;28;20136;-68
2021/03/27 01:24:59;;;;;;;15.30;13.70;;;;;;;19.45;50.12;100730.75;2063120;28;19918;-68
2021/03/27 01:26:05;;;;;;;17.65;14.38;;;;;;;19.45;50.17;100737.09;2062512;28;20034;-68
2021/03/27 01:27:24;;;;;;;15.02;13.43;;;;;;;19.45;50.14;100730.75;2055669;28;20035;-68
2021/03/27 01:28:43;;;;;;;16.15;13.52;;;;;;;19.45;50.04;100719.81;2060198;28;20251;-68
2021/03/27 01:29:51;;;;;;;15.43;13.80;;;;;;;19.43;50.16;100721.84;2064166;28;20102;-68
2021/03/27 01:31:04;;;;;;;19.13;14.43;;;;;;;19.44;50.12;100726.28;2063550;28;20036;-68
2021/03/27 01:32:16;;;;;;;;;;;;;;;19.41;50.09;100730.16;2062524;28;20109;-68
2021/03/27 01:33:43;;;;;;;15.80;12.90;;;;;;;19.41;50.12;100723.84;2058379;28;19918;-68
2021/03/27 01:34:51;;;;;;;17.45;14.00;;;;;;;19.43;49.99;100716.38;2039017;28;20067;-67
2021/03/27 01:36:04;;;;;;;17.00;14.27;;;;;;;19.41;50.04;100723.84;2058487;28;20420;-68
2021/03/27 01:37:24;;;;;;;14.65;13.05;;;;;;;19.41;50.10;100723.84;2060897;28;20493;-68
2021/03/27 01:38:32;;;;;;;14.90;13.30;;;;;;;19.41;50.16;100724.69;2062646;28;20489;-68
2021/03/27 01:40:08;;;;;;;15.05;13.48;;;;;;;19.42;50.08;100722.81;2060902;28;20034;-68
2021/03/27 01:41:44;;;;;;;14.35;12.43;;;;;;;19.42;50.13;100725.56;2061910;28;20026;-68
2021/03/27 01:43:08;;;;;;;14.48;13.00;;;;;;;19.44;50.10;100726.28;2062405;28;20022;-68
2021/03/27 01:44:15;;;;;;;14.38;12.82;;;;;;;19.45;49.88;100719.81;2062392;28;21247;-68
2021/03/27 01:45:47;;;;;;;15.75;12.85;;;;;;;19.46;49.85;100710.63;2055732;28;20071;-68
2021/03/27 01:47:03;;;;;;;14.45;12.10;;;;;;;19.47;49.85;100717.81;2063109;28;20489;-68
2021/03/27 01:48:31;;;;;;;14.23;12.73;;;;;;;19.48;49.86;100716.81;2060268;28;20077;-68
2021/03/27 01:49:55;;;;;;;14.88;12.20;;;;;;;19.50;49.79;100717.56;2060458;28;20420;-68
2021/03/27 01:51:02;;;;;;;15.75;12.15;;;;;;;19.49;49.75;100721.25;2061863;28;20557;-68
2021/03/27 01:52:03;;;;;;;15.93;12.70;;;;;;;19.49;49.78;100721.25;2060964;28;20038;-67
2021/03/27 01:53:25;;;;;;;15.13;12.43;;;;;;;19.50;49.75;100720.28;2060418;28;20054;-67
2021/03/27 01:54:37;;;;;;;13.82;12.23;;;;;;;19.48;49.72;100714.09;2063257;28;20026;-68
2021/03/27 01:56:14;;;;;;;17.52;13.30;;;;;;;19.49;49.89;100721.25;2062237;28;20061;-67
2021/03/27 01:57:40;;;;;;;14.10;12.60;;;;;;;19.47;49.87;100718.66;2055684;28;20037;-67
2021/03/27 01:58:45;;;;;;;12.98;11.55;;;;;;;19.48;49.80;100714.09;2030578;29;20201;-68
2021/03/27 01:59:55;;;;;;;13.65;12.20;;;;;;;19.49;49.82;100724.00;2058796;28;20121;-68
2021/03/27 02:01:09;;;;;;;13.95;12.45;;;;;;;19.47;49.78;100720.53;2063320;28;20034;-67
2021/03/27 02:02:45;;;;;;;14.90;12.50;;;;;;;19.46;49.85;100721.53;2057934;28;20443;-68
2021/03/27 02:04:00;;;;;;;13.60;11.65;;;;;;;19.47;49.84;100723.25;2037096;29;20483;-68
2021/03/27 02:05:19;;;;;;;15.13;13.25;;;;;;;19.46;49.90;100727.03;2055985;28;20066;-68
2021/03/27 02:06:50;;;;;;;13.95;12.02;;;;;;;19.45;49.74;100720.69;2061616;28;20033;-68
2021/03/27 02:08:03;;;;;;;14.70;12.35;;;;;;;19.44;49.99;100729.03;2061454;28;20084;-68
2021/03/27 02:09:32;;;;;;;15.40;12.50;;;;;;;19.43;49.80;100722.69;2059037;28;20027;-68
2021/03/27 02:11:04;;;;;;;13.10;11.55;;;;;;;19.44;49.73;100723.56;2063328;28;20078;-67
2021/03/27 02:12:32;;;;;;;14.60;11.60;;;;;;;19.44;49.64;100723.56;2054885;28;20034;-67
2021/03/27 02:13:55;;;;;;;14.55;12.43;;;;;;;19.44;49.82;100723.56;2055480;28;20090;-68
2021/03/27 02:15:05;;;;;;;12.85;11.55;;;;;;;19.43;49.89;100719.09;2062867;28;20449;-67
2021/03/27 02:16:23;;;;;;;12.60;11.20;;;;;;;19.42;49.99;100720.09;2062243;28;20063;-68
2021/03/27 02:17:40;;;;;;;14.77;12.00;;;;;;;19.42;49.87;100712.75;2061158;28;20035;-67
2021/03/27 02:19:02;;;;;;;14.98;11.73;;;;;;;19.42;49.78;100715.47;2062251;28;20046;-68
2021/03/27 02:20:24;;;;;;;13.70;11.15;;;;;;;19.41;49.91;100715.63;2062824;28;20116;-68
2021/03/27 02:21:32;;;;;;;14.02;11.75;;;;;;;19.41;49.96;100718.38;2060773;28;20034;-68
2021/03/27 02:22:49;;;;;;;13.38;10.90;;;;;;;19.40;49.82;100717.50;2062066;28;20022;-68
2021/03/27 02:24:04;;;;;;;12.98;11.10;;;;;;;19.40;49.88;100722.09;2060225;28;20024;-68
2021/03/27 02:25:43;;;;;;;14.80;12.55;;;;;;;19.40;49.93;100722.09;2063031;28;20092;-68
2021/03/27 02:27:16;;;;;;;13.65;11.68;;;;;;;19.37;49.91;100716.91;2062579;28;20026;-68
2021/03/27 02:29:01;;;;;;;13.30;11.40;;;;;;;19.38;49.88;100721.38;2021635;29;20551;-68
2021/03/27 02:30:04;;;;;;;14.23;12.10;;;;;;;19.37;49.82;100723.22;2031127;28;20806;-67
2021/03/27 02:31:23;;;;;;;12.82;11.43;;;;;;;19.38;49.87;100719.50;2057898;28;20041;-67
2021/03/27 02:32:48;;;;;;;12.75;11.38;;;;;;;19.37;50.01;100725.09;2056034;28;20117;-68
2021/03/27 02:34:02;;;;;;;11.55;10.05;;;;;;;19.37;49.94;100727.81;2052683;28;20034;-68
2021/03/27 02:35:06;;;;;;;13.57;11.80;;;;;;;19.36;49.98;100726.13;2054891;28;20027;-68
2021/03/27 02:36:18;;;;;;;13.02;11.43;;;;;;;19.34;50.04;100717.19;2061302;28;20026;-68
2021/03/27 02:37:18;;;;;;;13.00;11.50;;;;;;;19.35;49.94;100724.38;2062991;28;20502;-68
2021/03/27 02:38:37;;;;;;;13.00;11.27;;;;;;;19.34;49.91;100714.44;2062986;28;20038;-68
2021/03/27 02:39:46;;;;;;;13.98;10.93;;;;;;;19.34;50.05;100722.66;2062288;28;20045;-68
2021/03/27 02:40:58;;;;;;;13.00;10.35;;;;;;;19.33;49.91;100720.91;2062855;28;20215;-68
2021/03/27 02:42:01;;;;;;;12.48;10.52;;;;;;;19.34;50.10;100722.66;2058200;28;20041;-68
2021/03/27 02:43:18;;;;;;;13.25;11.85;;;;;;;19.34;50.03;100725.38;2062090;28;20041;-68
2021/03/27 02:44:29;;;;;;;14.70;11.52;;;;;;;19.33;50.06;100721.78;2053188;28;20600;-68
2021/03/27 02:45:32;;;;;;;12.57;10.85;;;;;;;19.33;49.96;100726.38;2048972;28;20130;-68
2021/03/27 02:46:46;;;;;;;12.73;10.70;;;;;;;19.33;50.03;100723.63;2061940;28;20026;-68
2021/03/27 02:48:20;;;;;;;13.93;11.32;;;;;;;19.33;49.87;100726.38;2061980;28;20626;-68
2021/03/27 02:49:56;;;;;;;12.90;10.77;;;;;;;19.31;50.05;100718.31;2057014;28;20072;-68
2021/03/27 02:51:19;;;;;;;12.75;10.85;;;;;;;19.31;50.16;100722.94;2055325;28;20034;-68
2021/03/27 02:52:22;;;;;;;13.95;10.85;;;;;;;19.30;50.02;100722.03;2059072;28;20054;-68
2021/03/27 02:53:42;;;;;;;11.30;10.13;;;;;;;19.28;50.02;100730.38;2060034;28;20105;-67
2021/03/27 02:54:57;;;;;;;12.75;10.45;;;;;;;19.30;50.01;100726.63;2062632;28;20030;-68
2021/03/27 02:56:16;;;;;;;12.50;11.18;;;;;;;19.27;50.07;100727.78;2056689;28;20130;-67
2021/03/27 02:57:39;;;;;;;14.27;11.45;;;;;;;19.27;50.24;100722.31;2056474;28;20102;-68
2021/03/27 02:58:51;;;;;;;11.60;10.40;;;;;;;19.26;50.19;100729.66;2055442;28;20094;-68
2021/03/27 03:00:07;;;;;;;11.50;10.30;;;;;;;19.25;50.19;100719.69;2060914;28;20026;-68
2021/03/27 03:01:15;;;;;;;11.65;10.15;;;;;;;19.26;50.17;100716.00;2062134;28;20069;-68
2021/03/27 03:02:15;;;;;;;11.65;10.45;;;;;;;19.28;50.26;100729.53;2062382;28;20123;-68
2021/03/27 03:03:18;;;;;;;12.10;10.53;;;;;;;19.26;50.08;100732.38;2061880;28;20095;-68
2021/03/27 03:05:06;;;;;;;12.10;9.95;;;;;;;19.26;50.19;100732.38;2060577;28;20129;-68
2021/03/27 03:06:39;;;;;;;12.05;10.65;;;;;;;19.26;50.10;100735.13;2035069;28;20105;-68
2021/03/27 03:07:48;;;;;;;11.80;10.15;;;;;;;19.25;50.33;100741.56;2060781;28;20026;-66
2021/03/27 03:09:18;;;;;;;12.52;10.65;;;;;;;19.25;50.19;100733.38;2058021;28;20030;-66
2021/03/27 03:10:30;;;;;;;13.75;10.35;;;;;;;19.25;50.34;100737.97;2056748;28;20039;-66
2021/03/27 03:12:07;;;;;;;12.65;11.20;;;;;;;19.25;50.30;100736.09;2058884;28;20038;-66
2021/03/27 03:13:34;;;;;;;13.20;10.55;;;;;;;19.23;50.04;100732.66;2062313;28;20038;-66
2021/03/27 03:14:55;;;;;;;12.50;10.48;;;;;;;19.23;50.32;100732.66;2062683;28;20548;-67
2021/03/27 03:16:04;;;;;;;11.68;10.40;;;;;;;19.23;50.32;100743.59;2061291;28;20030;-67
2021/03/27 03:17:21;;;;;;;12.23;10.93;;;;;;;19.22;50.25;100736.38;2062700;28;20034;-67
2021/03/27 03:18:45;;;;;;;11.65;10.35;;;;;;;19.21;50.39;100736.53;2062541;28;20473;-67
2021/03/27 03:20:07;;;;;;;12.50;9.90;;;;;;;19.22;50.22;100736.38;2054390;28;20130;-67
2021/03/27 03:21:18;;;;;;;12.95;11.25;;;;;;;19.22;50.37;100733.66;2061651;28;20030;-67
2021/03/27 03:22:43;;;;;;;11.30;10.10;;;;;;;19.21;50.29;100734.66;2062514;28;20116;-67
2021/03/27 03:24:21;;;;;;;12.48;10.48;;;;;;;19.20;50.43;100741.13;2055300;28;20075;-67
2021/03/27 03:25:25;;;;;;;13.55;10.45;;;;;;;19.19;50.24;100731.19;2057434;28;20030;-67
2021/03/27 03:26:39;;;;;;;11.85;9.75;;;;;;;19.19;50.47;100733.94;2061814;28;20105;-67
2021/03/27 03:27:40;;;;;;;11.52;10.25;;;;;;;19.20;50.40;100738.38;2055270;28;20030;-67
2021/03/27 03:29:08;;;;;;;12.47;10.50;;;;;;;19.20;50.35;100726.59;2062508;28;20118;-67
2021/03/27 03:30:27;;;;;;;11.35;10.15;;;;;;;19.20;50.32;100738.38;2056431;28;20050;-67
2021/03/27 03:31:43;;;;;;;12.13;10.82;;;;;;;19.20;50.40;100743.84;2062419;28;20056;-67
2021/03/27 03:33:22;;;;;;;13.40;10.02;;;;;;;19.20;50.41;100737.53;2062228;28;20039;-67
2021/03/27 03:34:59;;;;;;;11.93;10.18;;;;;;;19.17;50.40;100738.66;2062017;28;20706;-68
2021/03/27 03:36:07;;;;;;;11.13;9.75;;;;;;;19.18;50.47;100740.41;2060517;28;20513;-68
2021/03/27 03:37:18;;;;;;;11.95;9.93;;;;;;;19.19;50.38;100747.59;2061625;28;20201;-68
2021/03/27 03:38:47;;;;;;;11.15;9.98;;;;;;;19.18;50.53;100744.97;2062474;28;20096;-67
2021/03/27 03:40:09;;;;;;;12.82;9.82;;;;;;;19.17;50.36;100748.72;2059561;28;20589;-68
2021/03/27 03:41:10;;;;;;;11.52;9.75;;;;;;;19.18;50.44;100751.34;2062352;28;20045;-68
2021/03/27 03:42:33;;;;;;;10.83;9.70;;;;;;;19.16;50.34;100747.88;2060965;28;20026;-68
2021/03/27 03:43:36;;;;;;;11.15;9.50;;;;;;;19.16;50.44;100747.88;2060219;28;20433;-67
2021/03/27 03:44:47;;;;;;;10.73;9.40;;;;;;;19.16;50.41;100758.81;2062256;28;20088;-68
2021/03/27 03:46:12;;;;;;;10.38;9.10;;;;;;;19.15;50.54;100743.38;2061238;28;20034;-67
2021/03/27 03:47:33;;;;;;;11.57;9.90;;;;;;;19.15;50.44;100756.19;2062027;28;20034;-67
2021/03/27 03:48:51;;;;;;;11.55;9.13;;;;;;;19.15;50.46;100759.78;2058216;28;20031;-68
2021/03/27 03:50:09;;;;;;;11.60;9.93;;;;;;;19.15;50.41;100764.38;2059474;28;20218;-68
2021/03/27 03:51:38;;;;;;;11.00;9.52;;;;;;;19.13;50.56;100759.03;2059977;28;20038;-67
2021/03/27 03:52:44;;;;;;;13.07;10.70;;;;;;;19.13;50.55;100764.50;2024466;28;20044;-68
2021/03/27 03:54:00;;;;;;;11.85;10.00;;;;;;;19.14;50.50;100760.81;2058439;28;20030;-68
2021/03/27 03:55:11;;;;;;;11.05;9.43;;;;;;;19.14;50.45;100759.94;2061253;28;20120;-67
2021/03/27 03:56:35;;;;;;;10.75;9.25;;;;;;;19.13;50.52;100759.03;2060910;28;20050;-68
2021/03/27 03:57:52;;;;;;;11.20;9.55;;;;;;;19.13;50.57;100764.50;2044304;28;20046;-67
2021/03/27 03:58:55;;;;;;;10.57;9.02;;;;;;;19.13;50.40;100761.78;2054488;28;20030;-67
2021/03/27 04:00:14;;;;;;;9.93;8.68;;;;;;;19.12;50.53;100768.25;2058410;28;20416;-68
2021/03/27 04:01:27;;;;;;;12.32;9.48;;;;;;;19.11;50.51;100769.28;2058658;28;20033;-68
2021/03/27 04:02:33;;;;;;;11.05;9.38;;;;;;;19.10;50.52;100764.78;2061571;28;20034;-68
2021/03/27 04:03:55;;;;;;;11.27;9.75;;;;;;;19.10;50.56;100770.25;2058223;28;20027;-67
2021/03/27 04:05:04;;;;;;;10.45;9.25;;;;;;;19.09;50.67;100768.53;2054609;28;20031;-68
2021/03/27 04:06:12;;;;;;;10.00;8.63;;;;;;;19.08;50.63;100765.91;2060982;28;20027;-68
2021/03/27 04:07:19;;;;;;;9.88;8.50;;;;;;;19.08;50.53;100769.50;2059545;28;20076;-67
2021/03/27 04:08:26;;;;;;;11.18;9.18;;;;;;;19.10;50.58;100770.25;2062230;28;20041;-67
2021/03/27 04:09:34;;;;;;;10.73;9.35;;;;;;;19.09;50.66;100768.53;2060825;28;20044;-68
2021/03/27 04:10:36;;;;;;;12.30;9.60;;;;;;;19.10;50.49;100775.72;2059953;28;20037;-68
2021/03/27 04:11:51;;;;;;;10.45;9.15;;;;;;;19.08;50.61;100776.84;2062646;28;20030;-68
2021/03/27 04:12:59;;;;;;;10.10;8.80;;;;;;;19.09;50.57;100779.47;2060973;28;20533;-68
2021/03/27 04:14:04;;;;;;;10.15;8.52;;;;;;;19.06;50.54;100772.41;2058083;28;20070;-67
2021/03/27 04:15:10;;;;;;;10.48;9.20;;;;;;;19.07;50.54;100778.72;2062698;28;20101;-67
2021/03/27 04:16:15;;;;;;;9.93;8.93;;;;;;;19.07;50.57;100776.00;2058045;28;20081;-67
2021/03/27 04:17:43;;;;;;;9.98;8.75;;;;;;;19.06;50.69;100783.34;2061533;28;20030;-67
2021/03/27 04:19:01;;;;;;;12.63;9.85;;;;;;;19.06;50.58;100791.53;2056417;28;20033;-65
2021/03/27 04:20:18;;;;;;;11.10;9.65;;;;;;;19.05;50.63;100784.31;2061830;28;20574;-68
2021/03/27 04:21:28;;;;;;;10.10;8.88;;;;;;;19.06;50.67;100787.94;2058968;28;20098;-68
2021/03/27 04:22:33;;;;;;;10.15;8.95;;;;;;;19.05;50.64;100788.91;2059491;28;20089;-68
2021/03/27 04:23:45;;;;;;;11.15;9.95;;;;;;;19.06;50.64;100790.66;2061054;28;20030;-68
2021/03/27 04:25:01;;;;;;;10.93;9.73;;;;;;;19.06;50.71;100793.41;2056474;28;20433;-68
2021/03/27 04:26:21;;;;;;;10.50;9.10;;;;;;;19.05;50.54;100795.25;2058944;28;20022;-68
2021/03/27 04:27:30;;;;;;;10.77;8.98;;;;;;;19.06;50.63;100796.13;2060540;28;20089;-68
2021/03/27 04:28:39;;;;;;;11.50;9.02;;;;;;;19.05;50.60;100794.38;2061570;28;20030;-68
2021/03/27 04:29:49;;;;;;;11.55;9.20;;;;;;;19.03;50.58;100794.53;2063374;28;20077;-68
2021/03/27 04:30:58;;;;;;;11.00;9.30;;;;;;;19.04;50.49;100798.13;2058333;28;20103;-68
2021/03/27 04:32:33;;;;;;;10.80;9.13;;;;;;;19.03;50.64;100801.84;2057861;28;20026;-68
2021/03/27 04:33:52;;;;;;;10.20;8.60;;;;;;;19.02;50.61;100800.13;2059587;28;20814;-67
2021/03/27 04:35:02;;;;;;;10.23;8.82;;;;;;;19.03;50.49;100802.72;2060275;28;20034;-68
2021/03/27 04:36:14;;;;;;;10.15;8.80;;;;;;;19.03;50.46;100796.38;2057028;28;20045;-68
2021/03/27 04:37:36;;;;;;;9.93;8.38;;;;;;;19.02;50.57;100795.53;2061579;28;20033;-68
2021/03/27 04:38:46;;;;;;;10.88;9.02;;;;;;;19.02;50.68;100798.25;2059862;28;20568;-67
2021/03/27 04:39:57;;;;;;;10.55;8.70;;;;;;;19.02;50.71;100800.13;2050724;28;20066;-67
2021/03/27 04:41:30;;;;;;;9.77;8.43;;;;;;;19.00;50.56;100802.97;2050111;28;20106;-68
2021/03/27 04:42:47;;;;;;;10.52;8.63;;;;;;;19.01;50.59;100807.47;2060139;28;20034;-68
2021/03/27 04:43:59;;;;;;;9.73;8.50;;;;;;;19.00;50.66;100807.56;2061784;28;20203;-68
2021/03/27 04:45:10;;;;;;;9.60;8.63;;;;;;;18.99;50.59;100801.25;2061163;28;20055;-68
2021/03/27 04:46:18;;;;;;;11.43;8.02;;;;;;;19.01;50.81;100806.56;2056353;28;20131;-68
2021/03/27 04:47:28;;;;;;;9.98;8.95;;;;;;;18.99;50.60;100805.84;2060842;28;20405;-68
2021/03/27 04:48:34;;;;;;;9.05;7.78;;;;;;;18.98;50.75;100804.09;2060720;28;20090;-68
2021/03/27 04:50:02;;;;;;;10.25;8.52;;;;;;;18.99;50.57;100794.94;2062385;28;20030;-67
2021/03/27 04:51:15;;;;;;;9.07;7.85;;;;;;;18.99;50.83;100800.41;2060800;28;20045;-67
2021/03/27 04:52:43;;;;;;;9.90;8.73;;;;;;;19.00;50.75;100802.13;2059765;28;20026;-68
2021/03/27 04:54:01;;;;;;;10.40;8.68;;;;;;;18.98;50.68;100809.56;2049501;28;20077;-67
2021/03/27 04:55:14;;;;;;;9.48;8.50;;;;;;;18.99;50.67;100803.97;2054262;28;20033;-68
2021/03/27 04:56:44;;;;;;;9.48;8.48;;;;;;;18.98;50.68;100806.84;2056763;28;20035;-67
2021/03/27 04:58:10;;;;;;;9.13;7.90;;;;;;;18.97;50.78;100797.78;2062358;28;20038;-68
2021/03/27 04:59:29;;;;;;;10.40;8.30;;;;;;;18.98;50.66;100809.56;2063571;28;20385;-68
2021/03/27 05:00:43;;;;;;;10.63;8.73;;;;;;;18.98;50.70;100809.56;2063425;28;20394;-68
2021/03/27 05:02:14;;;;;;;9.48;8.23;;;;;;;18.96;50.59;100806.09;2063135;28;20717;-67
2021/03/27 05:03:42;;;;;;;10.32;8.30;;;;;;;18.98;50.73;100812.31;2060885;28;20145;-67
2021/03/27 05:05:13;;;;;;;9.20;7.82;;;;;;;18.94;50.61;100808.13;2056064;28;20027;-67
2021/03/27 05:06:37;;;;;;;9.80;8.10;;;;;;;18.94;50.67;100808.13;2063822;28;20077;-67
2021/03/27 05:08:04;;;;;;;8.50;7.68;;;;;;;18.95;50.63;100813.44;2061195;28;20029;-68
2021/03/27 05:09:29;;;;;;;8.65;7.47;;;;;;;18.95;50.70;100813.44;2048241;28;20054;-67
2021/03/27 05:10:41;;;;;;;9.73;8.23;;;;;;;18.96;50.60;100815.19;2062035;28;20608;-68
2021/03/27 05:12:23;;;;;;;9.30;8.25;;;;;;;18.96;50.51;100811.56;2062620;28;20030;-68
2021/03/27 05:13:53;;;;;;;9.65;8.65;;;;;;;18.96;50.55;100817.03;2048468;28;20048;-68
2021/03/27 05:14:59;;;;;;;10.32;8.32;;;;;;;18.97;50.51;100819.63;2058096;28;20035;-68
2021/03/27 05:16:11;;;;;;;9.23;8.10;;;;;;;18.98;50.36;100823.22;2061546;28;20490;-67
2021/03/27 05:17:44;;;;;;;9.35;8.02;;;;;;;18.96;50.67;100826.13;2062086;28;20033;-68
2021/03/27 05:18:53;;;;;;;8.88;7.97;;;;;;;18.99;50.58;100830.44;2041763;28;20130;-67
2021/03/27 05:20:00;;;;;;;10.07;8.85;;;;;;;18.99;50.60;100825.84;2058442;28;20494;-68
2021/03/27 05:21:33;;;;;;;8.75;7.82;;;;;;;18.99;50.44;100839.50;2063732;28;20070;-68
2021/03/27 05:22:52;;;;;;;10.35;8.50;;;;;;;19.00;50.40;100834.91;2057962;28;20035;-68
2021/03/27 05:24:17;;;;;;;9.27;7.72;;;;;;;19.02;50.42;100832.91;2061497;28;20030;-67
2021/03/27 05:25:22;;;;;;;10.10;8.23;;;;;;;19.02;50.36;100838.38;2054099;28;20026;-68
2021/03/27 05:26:48;;;;;;;8.77;7.22;;;;;;;19.01;50.41;100837.50;2062922;28;20034;-68
2021/03/27 05:28:17;;;;;;;12.00;7.85;;;;;;;19.02;50.40;100843.84;2058958;28;20033;-68
2021/03/27 05:29:40;;;;;;;9.13;7.65;;;;;;;19.02;50.32;100850.16;2037872;29;20043;-68
2021/03/27 05:31:09;;;;;;;10.15;8.25;;;;;;;19.03;50.21;100845.56;2061579;28;20032;-68
2021/03/27 05:32:34;;;;;;;8.75;7.43;;;;;;;19.03;50.40;100848.28;2053941;28;20038;-68
2021/03/27 05:33:41;;;;;;;8.68;7.78;;;;;;;19.03;50.35;100851.03;2062410;28;20034;-68
2021/03/27 05:34:52;;;;;;;9.00;8.07;;;;;;;19.03;50.43;100851.91;2063663;28;20034;-67
2021/03/27 05:36:24;;;;;;;9.25;7.70;;;;;;;19.01;50.17;100859.38;2062622;28;20105;-68
2021/03/27 05:37:31;;;;;;;9.48;8.18;;;;;;;19.01;50.29;100858.47;2060936;28;20129;-68
2021/03/27 05:38:34;;;;;;;8.70;7.80;;;;;;;19.00;50.29;100862.22;2061243;28;20581;-68
2021/03/27 05:39:45;;;;;;;10.32;8.00;;;;;;;19.01;50.28;100869.41;2055528;28;20027;-68
2021/03/27 05:41:14;;;;;;;9.00;7.75;;;;;;;19.01;50.41;100863.94;2058367;28;20152;-68
2021/03/27 05:42:51;;;;;;;10.00;7.70;;;;;;;18.99;50.47;100866.81;2062868;28;20026;-68
2021/03/27 05:44:20;;;;;;;8.48;7.22;;;;;;;19.00;50.49;100873.16;2062121;28;20034;-67
2021/03/27 05:46:08;;;;;;;8.75;7.68;;;;;;;18.98;50.12;100867.81;2062014;28;20476;-68